aviador You're here:

KRID Decoded Metar

in
Report Time2017-11-23 21:55:00
UTC Time2017-11-23 22:06:15
Flight Rules vfr VFR
Wind210° at 06 kt
W.Decomp.*RWY 24: 5.2 kt HW 3 kt LCW
RWY 15: 3.0 kt HW 5.2 kt RCW
W.Rank210° ranks 5
Current wind is below 210° avg. (10.0)
Visibility9999 m
Phenomena:N/A
Clouds:N/A
Expected CloudBase > 2,800 ft AGL from Temp-Dew spread
CeilingNone
Temp04°C
Dew Point-3°C (61% RH)
AAT-0.5°C
QNH1016 hPa
Raw Report
METAR KRID 232155Z AUTO 21006KT 10SM CLR 04/M03 A3001 RMK AO2=

Extra information for KRID:More info

Social comments